createdAt,value
2016-03-09T00:00:11.050Z,79.83
2016-03-09T00:01:11.037Z,79.64
2016-03-09T00:02:11.102Z,79.36
2016-03-09T00:03:11.104Z,79.45
2016-03-09T00:04:11.030Z,79.36
2016-03-09T00:05:11.032Z,79.26
2016-03-09T00:06:11.003Z,79.26
2016-03-09T00:07:11.005Z,79.26
2016-03-09T00:08:11.024Z,79.74
2016-03-09T00:09:10.996Z,80.21
2016-03-09T00:10:10.999Z,80.21
2016-03-09T00:11:11.001Z,79.83
2016-03-09T00:12:11.004Z,80.4
2016-03-09T00:13:10.976Z,80.21
2016-03-09T00:14:10.978Z,80.58
2016-03-09T00:15:10.996Z,80.58
2016-03-09T00:16:10.968Z,80.49
2016-03-09T00:17:10.970Z,80.4
2016-03-09T00:18:10.957Z,80.4
2016-03-09T00:19:10.945Z,80.49
2016-03-09T00:20:10.962Z,80.68
2016-03-09T00:21:10.965Z,80.11
2016-03-09T00:22:10.936Z,80.4
2016-03-09T00:23:10.939Z,80.11
2016-03-09T00:24:10.926Z,80.4
2016-03-09T00:25:10.914Z,80.11
2016-03-09T00:26:10.917Z,81.15
2016-03-09T00:27:10.934Z,80.96
2016-03-09T00:28:10.906Z,80.96
2016-03-09T00:29:10.909Z,81.15
2016-03-09T00:30:10.911Z,80.96
2016-03-09T00:31:10.909Z,80.58
2016-03-09T00:32:10.892Z,81.06
2016-03-09T00:33:10.895Z,80.96
2016-03-09T00:34:10.881Z,80.96
2016-03-09T00:35:10.884Z,80.96
2016-03-09T00:36:10.872Z,80.77
2016-03-09T00:37:10.874Z,81.34
2016-03-09T00:38:10.877Z,81.06
2016-03-09T00:39:10.864Z,81.15
2016-03-09T00:40:10.850Z,81.15
2016-03-09T00:41:10.853Z,80.96
2016-03-09T00:42:10.856Z,81.82
2016-03-09T00:43:10.686Z,81.82
2016-03-09T00:44:10.846Z,81.92
2016-03-09T00:45:10.833Z,81.63
2016-03-09T00:46:10.819Z,81.77
2016-03-09T00:47:10.822Z,82.48
2016-03-09T00:48:10.809Z,82.2
2016-03-09T00:49:10.813Z,82.95
2016-03-09T00:50:10.815Z,82.86
2016-03-09T00:51:10.802Z,82.91
2016-03-09T00:52:10.820Z,83.01
2016-03-09T00:53:10.792Z,83.39
2016-03-09T00:54:10.810Z,83.24
2016-03-09T00:55:10.782Z,83.48
2016-03-09T00:56:10.784Z,83.24
2016-03-09T00:57:10.771Z,83.43
2016-03-09T00:58:10.790Z,83.48
2016-03-09T00:59:10.776Z,83.67
2016-03-09T01:00:10.764Z,83.67
2016-03-09T01:01:10.767Z,84.14
2016-03-09T01:02:10.753Z,83.86
2016-03-09T01:03:10.756Z,84.23
2016-03-09T01:04:10.743Z,84.33
2016-03-09T01:05:10.746Z,84.42
2016-03-09T01:06:10.737Z,84.81
2016-03-09T01:07:10.729Z,84.9
2016-03-09T01:08:10.731Z,84.9
2016-03-09T01:09:09.968Z,84.71
2016-03-09T01:10:10.721Z,84.81
2016-03-09T01:11:10.709Z,85.47
2016-03-09T01:12:10.711Z,85.47
2016-03-09T01:13:10.698Z,85.47
2016-03-09T01:14:10.701Z,85.85
2016-03-09T01:15:10.687Z,86.13
2016-03-09T01:16:10.675Z,85.75
2016-03-09T01:17:10.678Z,85.94
2016-03-09T01:18:10.680Z,85.47
2016-03-09T01:19:10.683Z,85.47
2016-03-09T01:20:10.669Z,85.47
2016-03-09T01:21:10.658Z,85.75
2016-03-09T01:22:10.644Z,86.13
2016-03-09T01:23:10.553Z,85.75
2016-03-09T01:24:10.634Z,86.51
2016-03-09T01:25:10.636Z,86.41
2016-03-09T01:26:10.624Z,87.41
2016-03-09T01:27:10.611Z,87.23
2016-03-09T01:28:10.629Z,87.13
2016-03-09T01:29:10.600Z,87.13
2016-03-09T01:30:10.618Z,87.98
2016-03-09T01:31:10.606Z,87.32
2016-03-09T01:32:10.593Z,87.51
2016-03-09T01:33:10.580Z,87.98
2016-03-09T01:34:10.583Z,88.17
2016-03-09T01:35:10.570Z,87.88
2016-03-09T01:36:10.557Z,87.98
2016-03-09T01:37:10.560Z,87.79
2016-03-09T01:38:10.562Z,87.7
2016-03-09T01:39:10.548Z,88.26
2016-03-09T01:40:10.551Z,88.07
2016-03-09T01:41:10.539Z,87.7
2016-03-09T01:42:10.542Z,87.6
2016-03-09T01:43:10.513Z,87.51
2016-03-09T01:44:10.531Z,87.7
2016-03-09T01:45:10.503Z,88.07
2016-03-09T01:46:10.505Z,88.26
2016-03-09T01:47:10.493Z,87.79
2016-03-09T01:48:10.495Z,88.26
2016-03-09T01:49:10.497Z,88.26
2016-03-09T01:50:10.485Z,88.07
2016-03-09T01:51:10.472Z,87.98
2016-03-09T01:52:10.475Z,88.07
2016-03-09T01:53:10.337Z,88.26
2016-03-09T01:54:10.449Z,88.36
2016-03-09T01:55:10.452Z,88.55
2016-03-09T01:56:10.454Z,88.36
2016-03-09T01:57:10.442Z,88.64
2016-03-09T01:58:10.458Z,89.31
2016-03-09T01:59:10.458Z,88.93
2016-03-09T02:00:10.418Z,89.59
2016-03-09T02:01:10.416Z,89.21
2016-03-09T02:02:10.418Z,89.4
2016-03-09T02:03:10.232Z,89.4
2016-03-09T02:04:10.235Z,89.4
2016-03-09T02:05:10.363Z,89.5
2016-03-09T02:06:10.214Z,89.5
2016-03-09T02:07:10.359Z,89.31
2016-03-09T02:08:10.189Z,89.5
2016-03-09T02:09:10.362Z,89.31
2016-03-09T02:10:10.372Z,90.16
2016-03-09T02:11:10.345Z,89.87
2016-03-09T02:12:10.334Z,89.78
2016-03-09T02:13:10.337Z,89.97
2016-03-09T02:14:10.199Z,89.69
2016-03-09T02:15:10.155Z,90.06
2016-03-09T02:16:10.141Z,90.06
2016-03-09T02:17:10.302Z,90.34
2016-03-09T02:18:10.288Z,89.97
2016-03-09T02:19:10.291Z,90.16
2016-03-09T02:20:10.277Z,90.25
2016-03-09T02:21:10.265Z,90.06
2016-03-09T02:22:10.252Z,90.34
2016-03-09T02:23:10.348Z,89.97
2016-03-09T02:24:10.242Z,89.87
2016-03-09T02:25:10.245Z,89.69
2016-03-09T02:26:10.247Z,89.69
2016-03-09T02:27:10.218Z,89.87
2016-03-09T02:28:10.237Z,89.69
2016-03-09T02:29:10.223Z,89.87
2016-03-09T02:30:10.226Z,89.59
2016-03-09T02:31:10.198Z,89.97
2016-03-09T02:32:10.201Z,89.87
2016-03-09T02:33:10.203Z,89.69
2016-03-09T02:34:10.189Z,89.97
2016-03-09T02:35:10.193Z,89.92
2016-03-09T02:36:10.180Z,90.2
2016-03-09T02:37:10.167Z,90.11
2016-03-09T02:38:10.186Z,90.3
2016-03-09T02:39:10.157Z,90.39
2016-03-09T02:40:10.144Z,90.77
2016-03-09T02:41:10.146Z,90.77
2016-03-09T02:42:10.134Z,90.3
2016-03-09T02:43:10.136Z,90.2
2016-03-09T02:44:10.138Z,90.58
2016-03-09T02:45:10.127Z,90.39
2016-03-09T02:46:10.113Z,90.96
2016-03-09T02:47:10.132Z,90.86
2016-03-09T02:48:10.119Z,91.43
2016-03-09T02:49:10.074Z,91.15
2016-03-09T02:50:10.093Z,91.43
2016-03-09T02:51:10.079Z,91.34
2016-03-09T02:52:10.068Z,90.86
2016-03-09T02:53:10.070Z,91.62
2016-03-09T02:54:10.056Z,91.81
2016-03-09T02:55:10.059Z,91.34
2016-03-09T02:56:10.062Z,91.24
2016-03-09T02:57:10.033Z,91.62
2016-03-09T02:58:10.021Z,91.53
2016-03-09T02:59:10.023Z,91.53
2016-03-09T03:00:10.010Z,91.24
2016-03-09T03:01:10.012Z,91.62
2016-03-09T03:02:09.984Z,91.34
2016-03-09T03:03:09.987Z,91.34
2016-03-09T03:04:09.989Z,91.43
2016-03-09T03:05:09.992Z,91.62
2016-03-09T03:06:09.964Z,91.24
2016-03-09T03:07:09.966Z,91.53
2016-03-09T03:08:09.953Z,91.53
2016-03-09T03:09:09.956Z,91.81
2016-03-09T03:10:09.959Z,91.24
2016-03-09T03:11:09.946Z,91.24
2016-03-09T03:12:09.933Z,91.62
2016-03-09T03:13:09.920Z,91.34
2016-03-09T03:14:09.922Z,91.62
2016-03-09T03:15:09.910Z,91.62
2016-03-09T03:16:09.913Z,91.62
2016-03-09T03:17:09.900Z,91.81
2016-03-09T03:18:09.887Z,91.53
2016-03-09T03:19:09.890Z,91.53
2016-03-09T03:20:09.877Z,91.72
2016-03-09T03:21:09.863Z,91.43
2016-03-09T03:22:09.866Z,91.62
2016-03-09T03:23:09.869Z,92
2016-03-09T03:24:09.856Z,91.72
2016-03-09T03:25:09.859Z,92.19
2016-03-09T03:26:09.845Z,92.19
2016-03-09T03:27:09.833Z,92.57
2016-03-09T03:28:09.835Z,92.29
2016-03-09T03:29:09.822Z,92.38
2016-03-09T03:30:09.825Z,92.29
2016-03-09T03:31:09.812Z,92.29
2016-03-09T03:32:09.799Z,92.47
2016-03-09T03:33:09.834Z,92.38
2016-03-09T03:34:09.805Z,92.66
2016-03-09T03:35:09.792Z,91.62
2016-03-09T03:36:09.778Z,91.62
2016-03-09T03:37:09.781Z,92
2016-03-09T03:38:09.769Z,91.53
2016-03-09T03:39:09.755Z,91.62
2016-03-09T03:40:09.743Z,91.72
2016-03-09T03:41:09.745Z,92.76
2016-03-09T03:42:09.748Z,92.66
2016-03-09T03:43:09.735Z,93.04
2016-03-09T03:44:09.722Z,93.04
2016-03-09T03:45:09.710Z,93.51
2016-03-09T03:46:09.727Z,92.85
2016-03-09T03:47:09.715Z,92.66
2016-03-09T03:48:09.702Z,92.66
2016-03-09T03:49:09.704Z,92.76
2016-03-09T03:50:09.677Z,92.94
2016-03-09T03:51:09.679Z,92.85
2016-03-09T03:52:09.666Z,93.23
2016-03-09T03:53:09.668Z,93.13
2016-03-09T03:54:09.671Z,93.32
2016-03-09T03:55:09.658Z,93.89
2016-03-09T03:56:09.629Z,93.8
2016-03-09T03:57:09.648Z,93.89
2016-03-09T03:58:09.620Z,94.18
2016-03-09T03:59:09.623Z,93.99
2016-03-09T04:00:09.625Z,94.27
2016-03-09T04:01:09.596Z,94.18
2016-03-09T04:02:09.614Z,94.27
2016-03-09T04:03:09.586Z,94.18
2016-03-09T04:04:09.588Z,93.7
2016-03-09T04:05:09.592Z,93.7
2016-03-09T04:06:09.562Z,93.8
2016-03-09T04:07:09.565Z,93.89
2016-03-09T04:08:09.567Z,93.8
2016-03-09T04:09:09.570Z,94.18
2016-03-09T04:10:09.542Z,93.89
2016-03-09T04:11:09.529Z,93.8
2016-03-09T04:12:09.533Z,93.89
2016-03-09T04:13:09.519Z,94.08
2016-03-09T04:14:09.521Z,94.08
2016-03-09T04:15:09.524Z,94.08
2016-03-09T04:16:09.511Z,94.56
2016-03-09T04:17:09.499Z,93.8
2016-03-09T04:18:09.485Z,94.18
2016-03-09T04:19:09.472Z,93.99
2016-03-09T04:20:09.475Z,94.65
2016-03-09T04:21:09.477Z,94.46
2016-03-09T04:22:09.466Z,94.08
2016-03-09T04:23:09.452Z,93.89
2016-03-09T04:24:09.455Z,94.46
2016-03-09T04:25:09.442Z,94.56
2016-03-09T04:26:09.429Z,94.56
2016-03-09T04:27:09.432Z,94.46
2016-03-09T04:28:09.411Z,93.8
2016-03-09T04:29:09.401Z,93.99
2016-03-09T04:30:09.392Z,94.08
2016-03-09T04:31:09.352Z,93.89
2016-03-09T04:32:09.343Z,93.99
2016-03-09T04:33:09.323Z,93.66
2016-03-09T04:34:09.321Z,94.13
2016-03-09T04:35:09.320Z,94.18
2016-03-09T04:36:09.287Z,94.08
2016-03-09T04:37:09.286Z,93.89
2016-03-09T04:38:09.302Z,93.99
2016-03-09T04:39:09.256Z,93.89
2016-03-09T04:40:09.273Z,94.13
2016-03-09T04:41:09.243Z,93.94
2016-03-09T04:42:09.229Z,93.94
2016-03-09T04:43:09.245Z,93.84
2016-03-09T04:44:09.232Z,94.51
2016-03-09T04:45:09.234Z,94.37
2016-03-09T04:46:09.220Z,94.65
2016-03-09T04:47:09.206Z,94.65
2016-03-09T04:48:09.192Z,94.03
2016-03-09T04:49:09.195Z,93.75
2016-03-09T04:50:09.181Z,94.13
2016-03-09T04:51:09.169Z,94.74
2016-03-09T04:52:09.155Z,94.7
2016-03-09T04:53:09.157Z,94.03
2016-03-09T04:54:09.144Z,93.75
2016-03-09T04:55:09.132Z,93.84
2016-03-09T04:56:09.166Z,94.03
2016-03-09T04:57:09.137Z,94.08
2016-03-09T04:58:09.108Z,94.13
2016-03-09T04:59:09.110Z,93.75
2016-03-09T05:00:09.114Z,93.99
2016-03-09T05:01:09.101Z,94.13
2016-03-09T05:02:09.088Z,93.7
2016-03-09T05:03:09.076Z,93.99
2016-03-09T05:04:09.062Z,93.89
2016-03-09T05:05:09.065Z,94.03
2016-03-09T05:06:09.083Z,94.13
2016-03-09T05:07:09.045Z,94.13
2016-03-09T05:08:09.048Z,94.03
2016-03-09T05:09:09.034Z,93.94
2016-03-09T05:10:09.038Z,93.8
2016-03-09T05:11:09.024Z,94.27
2016-03-09T05:12:09.012Z,93.84
2016-03-09T05:13:09.015Z,93.32
2016-03-09T05:14:09.001Z,93.23
2016-03-09T05:15:09.004Z,93.47
2016-03-09T05:16:08.990Z,93.28
2016-03-09T05:17:08.978Z,93.23
2016-03-09T05:18:08.981Z,93.18
2016-03-09T05:19:08.968Z,93.09
2016-03-09T05:20:08.970Z,93.28
2016-03-09T05:21:08.942Z,93.18
2016-03-09T05:22:08.945Z,93.09
2016-03-09T05:23:08.947Z,93.28
2016-03-09T05:24:08.981Z,93.37
2016-03-09T05:25:08.921Z,93.47
2016-03-09T05:26:08.908Z,94.03
2016-03-09T05:27:08.911Z,93.28
2016-03-09T05:28:08.898Z,93.56
2016-03-09T05:29:08.917Z,93.37
2016-03-09T05:30:08.889Z,93.18
2016-03-09T05:31:08.875Z,93.28
2016-03-09T05:32:08.878Z,93.18
2016-03-09T05:33:08.865Z,93.37
2016-03-09T05:34:08.868Z,92.99
2016-03-09T05:35:08.871Z,93.09
2016-03-09T05:36:08.841Z,93.28
2016-03-09T05:37:08.844Z,93.47
2016-03-09T05:38:08.846Z,93.18
2016-03-09T05:39:08.835Z,93.37
2016-03-09T05:40:08.822Z,93.37
2016-03-09T05:41:08.808Z,93.37
2016-03-09T05:42:08.811Z,93.56
2016-03-09T05:43:08.796Z,93.56
2016-03-09T05:44:08.799Z,93.94
2016-03-09T05:45:08.770Z,93.28
2016-03-09T05:46:08.788Z,93.09
2016-03-09T05:47:08.759Z,92.61
2016-03-09T05:48:08.762Z,92.71
2016-03-09T05:49:08.748Z,92.99
2016-03-09T05:50:08.751Z,92.8
2016-03-09T05:51:08.724Z,92.24
2016-03-09T05:52:08.726Z,92.61
2016-03-09T05:53:08.712Z,91.86
2016-03-09T05:54:08.747Z,91.67
2016-03-09T05:55:08.703Z,91.48
2016-03-09T05:56:08.689Z,91.58
2016-03-09T05:57:08.692Z,91.58
2016-03-09T05:58:08.680Z,91.48
2016-03-09T05:59:08.667Z,91.67
2016-03-09T06:00:08.670Z,91.77
2016-03-09T06:01:08.657Z,90.82
2016-03-09T06:02:08.644Z,91.01
2016-03-09T06:03:08.646Z,90.63
2016-03-09T06:04:08.650Z,91.29
2016-03-09T06:05:08.637Z,90.35
2016-03-09T06:06:08.623Z,90.44
2016-03-09T06:07:08.626Z,90.63
2016-03-09T06:08:08.613Z,90.73
2016-03-09T06:09:08.600Z,90.25
2016-03-09T06:10:08.588Z,89.78
2016-03-09T06:11:08.591Z,90.16
2016-03-09T06:12:08.609Z,89.92
2016-03-09T06:13:08.564Z,89.87
2016-03-09T06:14:08.552Z,89.59
2016-03-09T06:15:08.554Z,89.59
2016-03-09T06:16:08.541Z,89.03
2016-03-09T06:17:08.543Z,89.22
2016-03-09T06:18:08.531Z,88.69
2016-03-09T06:19:08.518Z,89.07
2016-03-09T06:20:08.521Z,88.88
2016-03-09T06:21:08.524Z,88.6
2016-03-09T06:22:08.526Z,88.79
2016-03-09T06:23:08.513Z,88.22
2016-03-09T06:24:08.531Z,87.84
2016-03-09T06:25:08.487Z,88.22
2016-03-09T06:26:08.474Z,88.12
2016-03-09T06:27:08.462Z,87.65
2016-03-09T06:28:08.465Z,87.55
2016-03-09T06:29:08.451Z,87.65
2016-03-09T06:30:08.454Z,87.93
2016-03-09T06:31:08.440Z,87.46
2016-03-09T06:32:08.428Z,87.37
2016-03-09T06:33:08.430Z,87.74
2016-03-09T06:34:08.434Z,86.99
2016-03-09T06:35:08.437Z,87.08
2016-03-09T06:36:08.408Z,86.42
2016-03-09T06:37:08.411Z,86.71
2016-03-09T06:38:08.397Z,86.42
2016-03-09T06:39:08.462Z,86.33
2016-03-09T06:40:08.386Z,86.61
2016-03-09T06:41:08.374Z,86.42
2016-03-09T06:42:08.377Z,85.85
2016-03-09T06:43:08.380Z,85.57
2016-03-09T06:44:08.367Z,85.95
2016-03-09T06:45:08.369Z,85.66
2016-03-09T06:46:08.356Z,85.47
2016-03-09T06:47:08.358Z,85.66
2016-03-09T06:48:08.330Z,85.76
2016-03-09T06:49:08.332Z,85.38
2016-03-09T06:50:08.336Z,85.66
2016-03-09T06:51:08.324Z,85.76
2016-03-09T06:52:08.326Z,84.91
2016-03-09T06:53:08.313Z,84.72
2016-03-09T06:54:08.315Z,84.63
2016-03-09T06:55:08.302Z,84.72
2016-03-09T06:56:08.289Z,84.91
2016-03-09T06:57:08.276Z,84.53
2016-03-09T06:58:08.280Z,84.44
2016-03-09T06:59:08.266Z,84.72
2016-03-09T07:00:08.254Z,84.1
2016-03-09T07:01:08.256Z,84.1
2016-03-09T07:02:08.258Z,84.1
2016-03-09T07:03:08.245Z,83.82
2016-03-09T07:04:08.249Z,84.01
2016-03-09T07:05:08.236Z,83.82
2016-03-09T07:06:08.223Z,83.44
2016-03-09T07:07:08.209Z,83.44
2016-03-09T07:08:08.197Z,83.34
2016-03-09T07:09:08.199Z,83.44
2016-03-09T07:10:08.202Z,83.06
2016-03-09T07:11:08.190Z,82.97
2016-03-09T07:12:08.192Z,82.97
2016-03-09T07:13:08.179Z,82.87
2016-03-09T07:14:08.166Z,83.44
2016-03-09T07:15:08.169Z,83.25
2016-03-09T07:16:08.171Z,82.97
2016-03-09T07:17:08.158Z,82.78
2016-03-09T07:18:08.145Z,82.68
2016-03-09T07:19:08.133Z,82.12
2016-03-09T07:20:08.136Z,82.4
2016-03-09T07:21:08.122Z,82.02
2016-03-09T07:22:07.969Z,82.4
2016-03-09T07:23:08.127Z,81.83
2016-03-09T07:24:08.130Z,81.64
2016-03-09T07:25:08.117Z,81.74
2016-03-09T07:26:08.104Z,82.02
2016-03-09T07:27:08.092Z,81.93
2016-03-09T07:28:08.094Z,81.83
2016-03-09T07:29:08.082Z,81.64
2016-03-09T07:30:08.084Z,81.36
2016-03-09T07:31:08.087Z,80.79
2016-03-09T07:32:08.074Z,80.88
2016-03-09T07:33:08.076Z,80.26
2016-03-09T07:34:08.079Z,78.65
2016-03-09T07:35:08.051Z,76.86
2016-03-09T07:36:08.053Z,73.68
2016-03-09T07:37:08.040Z,71.34
2016-03-09T07:38:08.058Z,69.2
2016-03-09T07:39:08.045Z,66.96
2016-03-09T07:40:08.034Z,64.4
2016-03-09T07:41:08.036Z,61.96
2016-03-09T07:42:08.022Z,60.28
2016-03-09T07:43:08.025Z,58.67
2016-03-09T07:44:08.027Z,57.65
2016-03-09T07:45:08.031Z,56.32
2016-03-09T07:46:08.033Z,55.47
2016-03-09T07:47:08.020Z,54.83
2016-03-09T07:48:08.023Z,53.03
2016-03-09T07:49:08.041Z,52.84
2016-03-09T07:50:08.028Z,52.74
2016-03-09T07:51:08.016Z,52.17
2016-03-09T07:52:08.034Z,51.53
2016-03-09T07:53:08.021Z,50.58
2016-03-09T07:54:08.024Z,50.48
2016-03-09T07:55:08.041Z,50.87
2016-03-09T07:56:08.029Z,50.2
2016-03-09T07:57:08.032Z,50.1
2016-03-09T07:58:08.050Z,49.35
2016-03-09T07:59:08.037Z,49.25
2016-03-09T08:00:08.055Z,48.96
2016-03-09T08:01:08.057Z,48.3
2016-03-09T08:02:08.045Z,48.61
2016-03-09T08:03:08.079Z,47.75
2016-03-09T08:04:08.051Z,47.37
2016-03-09T08:05:08.068Z,46.42
2016-03-09T08:06:08.071Z,46.15
2016-03-09T08:07:08.059Z,45.97
2016-03-09T08:08:08.061Z,45.68
2016-03-09T08:09:08.079Z,45.68
2016-03-09T08:10:08.082Z,46.42
2016-03-09T08:11:08.069Z,46.33
2016-03-09T08:12:08.072Z,46.14
2016-03-09T08:13:08.090Z,45.75
2016-03-09T08:14:08.108Z,45.56
2016-03-09T08:15:08.111Z,45.28
2016-03-09T08:16:08.114Z,45.95
2016-03-09T08:17:08.101Z,46.14
2016-03-09T08:18:08.103Z,46.25
2016-03-09T08:19:08.106Z,45.59
2016-03-09T08:20:08.108Z,44.64
2016-03-09T08:21:08.127Z,44.26
2016-03-09T08:22:08.114Z,45.21
2016-03-09T08:23:08.133Z,46.42
2016-03-09T08:24:08.135Z,48.96
2016-03-09T08:25:08.138Z,51.79
2016-03-09T08:26:08.141Z,53.95
2016-03-09T08:27:08.159Z,56.2
2016-03-09T08:28:08.162Z,57.59
2016-03-09T08:29:08.149Z,59.68
2016-03-09T08:30:08.151Z,60.6
2016-03-09T08:31:08.154Z,62.02
2016-03-09T08:32:08.157Z,62.02
2016-03-09T08:33:08.160Z,62.31
2016-03-09T08:34:08.162Z,62.66
2016-03-09T08:35:08.149Z,63.42
2016-03-09T08:36:08.167Z,64.27
2016-03-09T08:37:08.154Z,64.84
2016-03-09T08:38:08.158Z,64.74
2016-03-09T08:39:08.176Z,65.03
2016-03-09T08:40:08.162Z,65.69
2016-03-09T08:41:08.165Z,65.41
2016-03-09T08:42:08.152Z,66.07
2016-03-09T08:43:08.156Z,65.59
2016-03-09T08:44:08.174Z,66.26
2016-03-09T08:45:08.161Z,65.97
2016-03-09T08:46:08.163Z,65.97
2016-03-09T08:47:08.150Z,65.22
2016-03-09T08:48:08.169Z,66.07
2016-03-09T08:49:08.172Z,65.97
2016-03-09T08:50:08.159Z,65.97
2016-03-09T08:51:08.161Z,65.88
2016-03-09T08:52:08.149Z,65.5
2016-03-09T08:53:08.167Z,65.22
2016-03-09T08:54:08.154Z,65.69
2016-03-09T08:55:08.157Z,65.78
2016-03-09T08:56:08.159Z,67.4
2016-03-09T08:57:08.162Z,66.26
2016-03-09T08:58:08.133Z,65.78
2016-03-09T08:59:08.135Z,65.97
2016-03-09T09:00:08.138Z,66.16
2016-03-09T09:01:08.157Z,65.88
2016-03-09T09:02:08.144Z,65.41
2016-03-09T09:03:08.131Z,65.59
2016-03-09T09:04:08.149Z,65.59
2016-03-09T09:05:08.167Z,65.31
2016-03-09T09:06:08.124Z,65.31
2016-03-09T09:07:08.126Z,65.03
2016-03-09T09:08:08.113Z,65.31
2016-03-09T09:09:08.100Z,66.26
2016-03-09T09:10:08.322Z,65.88
2016-03-09T09:11:08.137Z,65.03
2016-03-09T09:12:08.109Z,64.65
2016-03-09T09:13:08.112Z,64.08
2016-03-09T09:14:08.098Z,63.32
2016-03-09T09:15:08.101Z,63.98
2016-03-09T09:16:08.104Z,63.79
2016-03-09T09:17:08.091Z,64.36
2016-03-09T09:18:08.094Z,63.79
2016-03-09T09:19:08.096Z,63.79
2016-03-09T09:20:08.114Z,64.36
2016-03-09T09:21:08.086Z,64.27
2016-03-09T09:22:08.088Z,63.89
2016-03-09T09:23:08.091Z,64.46
2016-03-09T09:24:08.281Z,64.36
2016-03-09T09:25:08.080Z,65.12
2016-03-09T09:26:08.083Z,64.74
2016-03-09T09:27:08.071Z,63.98
2016-03-09T09:28:08.074Z,63.7
2016-03-09T09:29:08.076Z,64.08
2016-03-09T09:30:08.063Z,64.27
2016-03-09T09:31:08.065Z,63.32
2016-03-09T09:32:08.053Z,63.6
2016-03-09T09:33:08.055Z,64.17
2016-03-09T09:34:08.058Z,63.42
2016-03-09T09:35:08.045Z,62.56
2016-03-09T09:36:08.048Z,62.28
2016-03-09T09:37:08.035Z,62.28
2016-03-09T09:38:08.038Z,62.31
2016-03-09T09:39:08.040Z,62.02
2016-03-09T09:40:08.043Z,62.02
2016-03-09T09:41:08.031Z,62.02
2016-03-09T09:42:08.033Z,61.27
2016-03-09T09:43:08.020Z,60.5
2016-03-09T09:44:08.023Z,60.22
2016-03-09T09:45:08.026Z,60.03
2016-03-09T09:46:08.028Z,60.22
2016-03-09T09:47:08.031Z,61.27
2016-03-09T09:48:08.002Z,60.98
2016-03-09T09:49:08.005Z,61.17
2016-03-09T09:50:08.008Z,60.6
2016-03-09T09:51:08.010Z,60.22
2016-03-09T09:52:07.998Z,60.22
2016-03-09T09:53:08.000Z,60.13
2016-03-09T09:54:08.003Z,60.31
2016-03-09T09:55:08.005Z,59.84
2016-03-09T09:56:08.008Z,59.56
2016-03-09T09:57:08.011Z,59.75
2016-03-09T09:58:07.997Z,59.84
2016-03-09T09:59:08.000Z,59.56
2016-03-09T10:00:08.018Z,59.84
2016-03-09T10:01:07.991Z,59.84
2016-03-09T10:02:07.977Z,59.94
2016-03-09T10:03:07.980Z,59.46
2016-03-09T10:04:07.999Z,58.99
2016-03-09T10:05:07.985Z,59.11
2016-03-09T10:06:07.988Z,58.17
2016-03-09T10:07:07.980Z,58.17
2016-03-09T10:08:07.969Z,58.42
2016-03-09T10:09:07.972Z,58.04
2016-03-09T10:10:07.974Z,57.88
2016-03-09T10:11:07.961Z,57.59
2016-03-09T10:12:07.964Z,57.5
2016-03-09T10:13:07.967Z,56.65
2016-03-09T10:14:07.969Z,56.93
2016-03-09T10:15:07.972Z,56.55
2016-03-09T10:16:07.975Z,55.79
2016-03-09T10:17:07.963Z,56.08
2016-03-09T10:18:07.965Z,56.65
2016-03-09T10:19:07.951Z,56.08
2016-03-09T10:20:07.970Z,56.46
2016-03-09T10:21:07.957Z,56.46
2016-03-09T10:22:07.944Z,56.17
2016-03-09T10:23:07.962Z,55.7
2016-03-09T10:24:07.935Z,56.17
2016-03-09T10:25:07.968Z,56.08
2016-03-09T10:26:07.954Z,55.51
2016-03-09T10:27:07.942Z,54.94
2016-03-09T10:28:07.960Z,53.99
2016-03-09T10:29:07.948Z,53.7
2016-03-09T10:30:07.934Z,53.64
2016-03-09T10:31:07.937Z,53.61
2016-03-09T10:32:07.940Z,53.61
2016-03-09T10:33:07.942Z,53.52
2016-03-09T10:34:07.929Z,53.35
2016-03-09T10:35:07.932Z,54.49
2016-03-09T10:36:07.919Z,54.08
2016-03-09T10:37:07.937Z,53.64
2016-03-09T10:38:07.939Z,53.45
2016-03-09T10:39:07.928Z,53.45
2016-03-09T10:40:07.961Z,53.54
2016-03-09T10:41:07.948Z,53.07
2016-03-09T10:42:07.919Z,52.78
2016-03-09T10:43:07.938Z,52.59
2016-03-09T10:44:07.925Z,52.78
2016-03-09T10:45:07.912Z,52.12
2016-03-09T10:46:07.916Z,51.74
2016-03-09T10:47:07.918Z,52.22
2016-03-09T10:48:07.921Z,51.36
2016-03-09T10:49:07.923Z,50.7
2016-03-09T10:50:07.910Z,51.45
2016-03-09T10:51:07.913Z,51.74
2016-03-09T10:52:07.915Z,51.83
2016-03-09T10:53:07.902Z,52.12
2016-03-09T10:54:07.904Z,51.83
2016-03-09T10:55:07.940Z,51.93
2016-03-09T10:56:07.926Z,52.12
2016-03-09T10:57:07.913Z,52.31
2016-03-09T10:58:07.916Z,52.5
2016-03-09T10:59:07.904Z,52.4
2016-03-09T11:00:07.906Z,53.64
2016-03-09T11:01:07.908Z,52.69
2016-03-09T11:02:07.912Z,52.59
2016-03-09T11:03:07.898Z,53.54
2016-03-09T11:04:07.901Z,54.21
2016-03-09T11:05:07.919Z,53.73
2016-03-09T11:06:07.890Z,53.54
2016-03-09T11:07:07.893Z,53.07
2016-03-09T11:08:07.895Z,53.26
2016-03-09T11:09:07.898Z,53.45
2016-03-09T11:10:07.917Z,53.73
2016-03-09T11:11:07.889Z,54.02
2016-03-09T11:12:07.891Z,53.64
2016-03-09T11:13:07.894Z,53.83
2016-03-09T11:14:07.897Z,55.35
2016-03-09T11:15:07.883Z,58.29
2016-03-09T11:16:07.886Z,56.77
2016-03-09T11:17:07.873Z,56.01
2016-03-09T11:18:07.876Z,54.87
2016-03-09T11:19:07.879Z,53.83
2016-03-09T11:20:07.882Z,53.83
2016-03-09T11:21:08.213Z,53.64
2016-03-09T11:22:07.887Z,53.57
2016-03-09T11:23:07.873Z,53.66
2016-03-09T11:24:08.251Z,53.57
2016-03-09T11:25:07.879Z,53.66
2016-03-09T11:26:07.882Z,53.66
2016-03-09T11:27:07.868Z,52.72
2016-03-09T11:28:07.887Z,51.86
2016-03-09T11:29:07.874Z,51.48
2016-03-09T11:30:07.862Z,51.95
2016-03-09T11:31:07.864Z,52.14
2016-03-09T11:32:07.867Z,51.95
2016-03-09T11:33:07.870Z,52.31
2016-03-09T11:34:07.856Z,52.91
2016-03-09T11:35:07.875Z,52.72
2016-03-09T11:36:07.862Z,52.69
2016-03-09T11:37:07.865Z,52.87
2016-03-09T11:38:07.883Z,53.64
2016-03-09T11:39:07.869Z,53.73
2016-03-09T11:40:07.873Z,53.64
2016-03-09T11:41:07.859Z,53.45
2016-03-09T11:42:07.862Z,53.54
2016-03-09T11:43:07.850Z,52.97
2016-03-09T11:44:07.852Z,52.59
2016-03-09T11:45:07.870Z,53.26
2016-03-09T11:46:07.857Z,52.5
2016-03-09T11:47:07.861Z,52.59
2016-03-09T11:48:07.863Z,52.69
2016-03-09T11:49:07.850Z,52.59
2016-03-09T11:50:07.868Z,52.62
2016-03-09T11:51:07.855Z,52.05
2016-03-09T11:52:07.843Z,51.39
2016-03-09T11:53:07.860Z,51.29
2016-03-09T11:54:07.849Z,51.1
2016-03-09T11:55:07.851Z,50.91
2016-03-09T11:56:07.854Z,49.96
2016-03-09T11:57:07.856Z,50.15
2016-03-09T11:58:08.202Z,49.58
2016-03-09T11:59:07.845Z,49.1
2016-03-09T12:00:07.848Z,49.41
2016-03-09T12:01:07.850Z,49.22
2016-03-09T12:02:07.838Z,49.7
2016-03-09T12:03:07.856Z,49.6
2016-03-09T12:04:07.859Z,50.08
2016-03-09T12:05:07.846Z,49.58
2016-03-09T12:06:07.848Z,50.24
2016-03-09T12:07:07.851Z,50.53
2016-03-09T12:08:07.839Z,51.01
2016-03-09T12:09:07.857Z,50.72
2016-03-09T12:10:07.844Z,50.62
2016-03-09T12:11:07.846Z,51.39
2016-03-09T12:12:07.849Z,51.36
2016-03-09T12:13:07.852Z,52.31
2016-03-09T12:14:07.839Z,52.78
2016-03-09T12:15:07.842Z,52.59
2016-03-09T12:16:07.844Z,52.87
2016-03-09T12:17:07.831Z,52.59
2016-03-09T12:18:07.850Z,52.4
2016-03-09T12:19:07.836Z,52.33
2016-03-09T12:20:07.839Z,52.14
2016-03-09T12:21:07.858Z,51.86
2016-03-09T12:22:07.844Z,51.76
2016-03-09T12:23:07.847Z,51.86
2016-03-09T12:24:07.850Z,50.34
2016-03-09T12:25:07.853Z,50.53
2016-03-09T12:26:07.856Z,50.72
2016-03-09T12:27:07.843Z,51.39
2016-03-09T12:28:07.845Z,51.48
2016-03-09T12:29:07.849Z,51.01
2016-03-09T12:30:07.851Z,51.57
2016-03-09T12:31:07.838Z,50.81
2016-03-09T12:32:07.840Z,50.72
2016-03-09T12:33:07.828Z,51.01
2016-03-09T12:34:07.845Z,50.62
2016-03-09T12:35:07.833Z,50.72
2016-03-09T12:36:07.851Z,50.24
2016-03-09T12:37:07.839Z,50.72
2016-03-09T12:38:07.841Z,50.81
2016-03-09T12:39:07.844Z,50.7
2016-03-09T12:40:07.847Z,50.41
2016-03-09T12:41:07.849Z,50.41
2016-03-09T12:42:07.852Z,50.72
2016-03-09T12:43:07.839Z,50.79
2016-03-09T12:44:07.842Z,51.36
2016-03-09T12:45:07.828Z,51.55
2016-03-09T12:46:07.847Z,51.55
2016-03-09T12:47:07.834Z,50.98
2016-03-09T12:48:07.836Z,51.36
2016-03-09T12:49:07.855Z,51.26
2016-03-09T12:50:07.842Z,51.36
2016-03-09T12:51:07.829Z,50.81
2016-03-09T12:52:07.832Z,50.79
2016-03-09T12:53:07.834Z,50.7
2016-03-09T12:54:07.853Z,51.45
2016-03-09T12:55:07.840Z,51.45